createdAt,value
2018-04-19T04:09:34.102Z,36
2018-04-19T04:09:59.519Z,40
2018-04-19T04:10:25.114Z,40
2018-04-19T04:10:50.533Z,44
2018-04-19T04:11:15.960Z,44
2018-04-19T04:11:42.042Z,48
2018-04-19T04:12:06.985Z,52
2018-04-19T04:12:32.485Z,56
2018-04-19T04:12:58.017Z,56
2018-04-19T04:13:23.484Z,64
2018-04-19T04:13:49.060Z,64
2018-04-19T04:14:14.565Z,68
2018-04-19T04:14:40.070Z,72
2018-04-19T04:15:05.589Z,76
2018-04-19T04:15:31.088Z,80
2018-04-19T04:15:56.652Z,84
2018-04-19T04:16:22.105Z,84
2018-04-19T04:16:47.672Z,92
2018-04-19T04:17:13.272Z,96
2018-04-19T04:17:38.909Z,104
2018-04-19T04:18:04.372Z,104
2018-04-19T04:18:29.855Z,108
2018-04-19T04:18:55.312Z,116
2018-04-19T04:19:20.757Z,120
2018-04-19T04:19:46.292Z,124
2018-04-19T04:20:11.756Z,132
2018-04-19T04:20:37.246Z,136
2018-04-19T04:21:02.767Z,144
2018-04-19T04:21:28.186Z,152
2018-04-19T04:21:53.723Z,156
2018-04-19T04:22:19.250Z,164
2018-04-19T04:22:44.660Z,168
2018-04-19T04:23:10.152Z,176
2018-04-19T04:23:35.805Z,184
2018-04-19T04:24:01.186Z,192
2018-04-19T04:24:26.747Z,200
2018-04-19T04:24:52.428Z,204
2018-04-19T04:25:17.880Z,216
2018-04-19T04:25:43.428Z,224
2018-04-19T04:26:08.892Z,232
2018-04-19T04:26:34.456Z,240
2018-04-19T04:26:59.971Z,248
2018-04-19T04:27:25.540Z,256
2018-04-19T04:27:51.039Z,268
2018-04-19T04:28:16.586Z,276
2018-04-19T04:28:42.042Z,288
2018-04-19T04:29:07.515Z,300
2018-04-19T04:29:33.035Z,308
2018-04-19T04:29:58.518Z,316
2018-04-19T04:30:23.989Z,328
2018-04-19T04:30:49.434Z,340
2018-04-19T04:31:15.036Z,352
2018-04-19T04:31:41.639Z,360
2018-04-19T04:32:07.849Z,376
2018-04-19T04:32:33.962Z,388
2018-04-19T04:33:00.374Z,400
2018-04-19T04:33:26.212Z,412
2018-04-19T04:33:52.294Z,424
2018-04-19T04:34:18.505Z,436
2018-04-19T04:34:44.844Z,448
2018-04-19T04:35:10.531Z,460
2018-04-19T04:35:36.116Z,476
2018-04-19T04:36:01.683Z,492
2018-04-19T04:36:27.454Z,504
2018-04-19T04:37:34.297Z,540
2018-04-19T04:38:00.142Z,552
2018-04-19T04:38:25.921Z,564
2018-04-19T04:38:51.406Z,580
2018-04-19T04:39:17.108Z,592
2018-04-19T04:39:42.567Z,608
2018-04-19T04:40:08.888Z,616
2018-04-19T04:40:34.427Z,636
2018-04-19T04:40:59.877Z,648
2018-04-19T04:41:25.474Z,660
2018-04-19T04:41:51.301Z,672
2018-04-19T04:42:16.701Z,688
2018-04-19T04:42:42.633Z,704
2018-04-19T04:43:08.349Z,716
2018-04-19T04:43:34.424Z,728
2018-04-19T04:44:00.276Z,748
2018-04-19T04:44:25.879Z,760
2018-04-19T04:44:51.275Z,780
2018-04-19T04:45:16.717Z,792
2018-04-19T04:45:42.157Z,804
2018-04-19T04:46:07.743Z,824
2018-04-19T04:46:33.290Z,836
2018-04-19T04:46:58.705Z,856
2018-04-19T04:47:24.239Z,868
2018-04-19T04:47:49.774Z,888
2018-04-19T04:48:15.056Z,900
2018-04-19T04:48:40.714Z,916
2018-04-19T04:49:06.186Z,932
2018-04-19T04:49:31.768Z,944
2018-04-19T04:49:57.271Z,960
2018-04-19T04:50:22.801Z,976
2018-04-19T04:50:48.512Z,996
2018-04-19T04:51:14.125Z,1008
2018-04-19T04:51:39.743Z,1024
2018-04-19T04:52:05.457Z,1040
2018-04-19T04:52:30.844Z,1052
2018-04-19T04:52:56.979Z,1068
2018-04-19T04:53:22.256Z,1084
2018-04-19T04:53:47.994Z,1092
2018-04-19T04:54:13.533Z,1108
2018-04-19T04:54:39.068Z,1120
2018-04-19T04:55:04.900Z,1136
2018-04-19T04:55:30.321Z,1152
2018-04-19T04:55:55.870Z,1168
2018-04-19T04:56:21.338Z,1184
2018-04-19T04:56:46.861Z,1200
2018-04-19T04:57:12.358Z,1220
2018-04-19T04:57:37.862Z,1240
2018-04-19T04:58:03.297Z,1252
2018-04-19T04:58:28.757Z,1272
2018-04-19T04:58:54.230Z,1288
2018-04-19T04:59:19.654Z,1300
2018-04-19T04:59:45.091Z,1312
2018-04-19T05:00:10.798Z,1328
2018-04-19T05:00:36.271Z,1344
2018-04-19T05:01:01.848Z,1360
2018-04-19T05:01:27.353Z,1372
2018-04-19T05:01:52.874Z,1388
2018-04-19T05:02:18.415Z,1404
2018-04-19T05:02:44.066Z,1416
2018-04-19T05:03:09.662Z,1432
2018-04-19T05:03:35.325Z,1444
2018-04-19T05:04:00.827Z,1460
2018-04-19T05:04:26.345Z,1476
2018-04-19T05:04:51.816Z,1488
2018-04-19T05:05:17.271Z,1508
2018-04-19T05:05:42.745Z,1520
2018-04-19T05:06:08.202Z,1532
2018-04-19T05:06:33.904Z,1548
2018-04-19T05:06:59.341Z,1560
2018-04-19T05:07:24.879Z,1576
2018-04-19T05:07:50.578Z,1588
2018-04-19T05:08:16.019Z,1604
2018-04-19T05:08:41.319Z,1620
2018-04-19T05:09:07.015Z,1632
2018-04-19T05:09:33.344Z,1648
2018-04-19T05:09:58.919Z,1656
2018-04-19T05:10:25.814Z,1676
2018-04-19T05:10:50.862Z,1684
2018-04-19T05:11:16.849Z,1700
2018-04-19T05:11:42.430Z,1712
2018-04-19T05:12:08.116Z,1728
2018-04-19T05:12:33.488Z,1748
2018-04-19T05:12:59.042Z,1764
2018-04-19T05:13:25.044Z,1784
2018-04-19T05:13:51.129Z,1804
2018-04-19T05:14:18.434Z,1828
2018-04-19T05:14:44.938Z,1856
2018-04-19T05:15:10.947Z,1884
2018-04-19T05:15:36.860Z,1912
2018-04-19T05:16:02.267Z,1936
2018-04-19T05:16:27.802Z,1968
2018-04-19T05:16:53.591Z,2004
2018-04-19T05:17:20.164Z,2040
2018-04-19T05:17:47.146Z,2084
2018-04-19T05:18:13.529Z,2120
2018-04-19T05:18:39.904Z,2148
2018-04-19T05:19:05.457Z,2180
2018-04-19T05:19:31.488Z,2204
2018-04-19T05:19:57.021Z,2228
2018-04-19T05:20:22.596Z,2244
2018-04-19T05:20:48.923Z,2260
2018-04-19T05:21:14.302Z,2280
2018-04-19T05:21:40.008Z,2300
2018-04-19T05:22:05.484Z,2332
2018-04-19T05:22:30.977Z,2360
2018-04-19T05:22:56.415Z,2396
2018-04-19T05:23:21.888Z,2428
2018-04-19T05:23:47.392Z,2460
2018-04-19T05:24:13.036Z,2484
2018-04-19T05:24:38.667Z,2508
2018-04-19T05:25:04.130Z,2528
2018-04-19T05:25:29.776Z,2556
2018-04-19T05:25:55.379Z,2576
2018-04-19T05:26:21.170Z,2608
2018-04-19T05:26:46.632Z,2640
2018-04-19T05:27:12.092Z,2680
2018-04-19T05:27:37.603Z,2728
2018-04-19T05:28:03.125Z,2788
2018-04-19T05:28:28.569Z,2848
2018-04-19T05:28:54.154Z,2912
2018-04-19T05:29:19.533Z,3108
2018-04-19T05:29:45.043Z,3164
2018-04-19T05:30:10.465Z,3208
2018-04-19T05:30:35.973Z,3232
2018-04-19T05:31:01.447Z,3252
2018-04-19T05:31:26.944Z,3268
2018-04-19T05:31:52.437Z,3300
2018-04-19T05:32:18.165Z,3340
2018-04-19T05:32:43.614Z,3372
2018-04-19T05:33:09.111Z,3404
2018-04-19T05:33:34.638Z,3436
2018-04-19T05:34:00.154Z,3456
2018-04-19T05:34:25.615Z,3460
2018-04-19T05:34:51.324Z,3456
2018-04-19T05:35:16.919Z,3464
2018-04-19T05:35:42.609Z,3480
2018-04-19T05:36:08.101Z,3508
2018-04-19T05:36:33.510Z,3544
2018-04-19T05:36:59.054Z,3580
2018-04-19T05:37:24.733Z,3608
2018-04-19T05:37:50.263Z,3628
2018-04-19T05:38:15.819Z,3648
2018-04-19T05:38:41.431Z,3668
2018-04-19T05:39:07.185Z,3688
2018-04-19T05:39:32.710Z,3708
2018-04-19T05:39:58.267Z,3728
2018-04-19T05:40:23.708Z,3748
2018-04-19T05:40:49.377Z,3768
2018-04-19T05:41:14.760Z,3784
2018-04-19T05:41:40.560Z,3800
2018-04-19T05:42:06.149Z,3816
2018-04-19T05:42:32.011Z,3832
2018-04-19T05:42:58.519Z,3844
2018-04-19T05:43:23.587Z,3852
2018-04-19T05:43:49.286Z,3860
2018-04-19T05:44:15.113Z,3868
2018-04-19T05:44:40.918Z,3888
2018-04-19T05:45:06.756Z,3912
2018-04-19T05:45:32.416Z,3928
2018-04-19T05:45:58.030Z,3960
2018-04-19T05:46:23.752Z,3988
2018-04-19T05:46:49.764Z,4016
2018-04-19T05:47:15.612Z,4044
2018-04-19T05:47:41.781Z,4060
2018-04-19T05:48:07.359Z,4088
2018-04-19T05:48:33.150Z,4112
2018-04-19T05:48:58.797Z,4136
2018-04-19T05:49:24.728Z,4160
2018-04-19T05:49:50.438Z,4188
2018-04-19T05:50:16.143Z,4216
2018-04-19T05:50:41.714Z,4248
2018-04-19T05:51:07.254Z,4264
2018-04-19T05:51:32.850Z,4280
2018-04-19T05:51:58.524Z,4304
2018-04-19T05:52:24.052Z,4332
2018-04-19T05:52:49.611Z,4356
2018-04-19T05:53:15.316Z,4380
2018-04-19T05:53:41.090Z,4396
2018-04-19T05:54:06.756Z,4408
2018-04-19T05:54:32.530Z,4416
2018-04-19T05:54:58.251Z,4424
2018-04-19T05:55:23.795Z,4432
2018-04-19T05:55:49.768Z,4440
2018-04-19T05:56:15.706Z,4456
2018-04-19T05:56:41.740Z,4464
2018-04-19T05:57:07.982Z,4472
2018-04-19T05:57:34.418Z,4496
2018-04-19T05:57:59.819Z,4512
2018-04-19T05:58:25.694Z,4528
2018-04-19T05:58:51.624Z,4556
2018-04-19T05:59:17.293Z,4572
2018-04-19T05:59:42.931Z,4596
2018-04-19T06:00:08.605Z,4620
2018-04-19T06:00:34.198Z,4636
2018-04-19T06:01:00.180Z,4656
2018-04-19T06:01:26.028Z,4664
2018-04-19T06:01:51.634Z,4672
2018-04-19T06:02:17.303Z,4648
2018-04-19T06:02:43.162Z,4628
2018-04-19T06:03:08.960Z,4604
2018-04-19T06:03:34.451Z,4576
2018-04-19T06:04:00.321Z,4560
2018-04-19T06:04:26.087Z,4568
2018-04-19T06:04:51.571Z,4568
2018-04-19T06:05:17.169Z,4568
2018-04-19T06:05:43.335Z,4580
2018-04-19T06:06:09.255Z,4592
2018-04-19T06:06:34.761Z,4596
2018-04-19T06:07:00.910Z,4604
2018-04-19T06:07:27.129Z,4616
2018-04-19T06:07:53.026Z,4620
2018-04-19T06:08:18.980Z,4636
2018-04-19T06:08:44.709Z,4648
2018-04-19T06:09:10.270Z,4652
2018-04-19T06:09:36.309Z,4660
2018-04-19T06:10:03.144Z,4672
2018-04-19T06:10:29.301Z,4680
2018-04-19T06:10:54.730Z,4692
2018-04-19T06:11:20.446Z,4692
2018-04-19T06:11:46.878Z,4692
2018-04-19T06:12:13.224Z,4704
2018-04-19T06:12:39.022Z,4720
2018-04-19T06:13:04.898Z,4724
2018-04-19T06:13:30.406Z,4708
2018-04-19T06:13:56.088Z,4692
2018-04-19T06:14:21.935Z,4700
2018-04-19T06:14:47.490Z,4708
2018-04-19T06:15:13.411Z,4712
2018-04-19T06:15:39.527Z,4736
2018-04-19T06:16:04.616Z,4760
2018-04-19T06:16:30.190Z,4772
2018-04-19T06:16:56.045Z,4784
2018-04-19T06:17:21.786Z,4796
2018-04-19T06:17:47.397Z,4800
2018-04-19T06:18:13.214Z,4804
2018-04-19T06:18:39.871Z,4812
2018-04-19T06:19:05.751Z,4828
2018-04-19T06:19:31.224Z,4828
2018-04-19T06:19:57.834Z,4844
2018-04-19T06:20:23.313Z,4840
2018-04-19T06:20:55.206Z,4852
2018-04-19T06:21:32.011Z,4864
2018-04-19T06:21:57.704Z,4868
2018-04-19T06:22:23.713Z,4876
2018-04-19T06:22:49.335Z,4888
2018-04-19T06:23:15.074Z,4892
2018-04-19T06:23:40.625Z,4904
2018-04-19T06:24:06.271Z,4912
2018-04-19T06:24:32.583Z,4924
2018-04-19T06:24:58.262Z,4928
2018-04-19T06:26:00.143Z,4952
2018-04-19T06:26:46.863Z,4980
2018-04-19T06:27:11.373Z,4996
2018-04-19T06:27:37.134Z,5012
2018-04-19T06:28:05.286Z,5044
2018-04-19T06:28:30.796Z,5080
2018-04-19T06:28:56.692Z,5148
2018-04-19T06:30:01.550Z,7268
2018-04-19T06:30:27.015Z,8856
2018-04-19T06:30:52.623Z,10428
2018-04-19T06:31:18.014Z,11680
2018-04-19T06:31:44.021Z,12724
2018-04-19T06:32:09.672Z,13388
2018-04-19T06:32:35.398Z,13236
2018-04-19T06:33:01.236Z,12596
2018-04-19T06:33:26.699Z,12328
2018-04-19T06:33:52.790Z,12328
2018-04-19T06:34:18.430Z,12868
2018-04-19T06:34:44.084Z,13840
2018-04-19T06:35:09.521Z,15520
2018-04-19T06:35:35.318Z,17312
2018-04-19T06:36:00.911Z,19008
2018-04-19T06:36:26.545Z,20256
2018-04-19T06:36:51.975Z,20992
2018-04-19T06:37:17.674Z,21664
2018-04-19T06:37:43.612Z,21952
2018-04-19T06:38:09.451Z,22336
2018-04-19T06:38:35.137Z,23136
2018-04-19T06:39:00.860Z,23648
2018-04-19T06:39:26.393Z,24384
2018-04-19T06:39:52.564Z,25280
2018-04-19T06:40:18.431Z,26016
2018-04-19T06:40:44.198Z,26528
2018-04-19T06:41:10.195Z,26464
2018-04-19T06:41:35.748Z,26208
2018-04-19T06:42:01.483Z,25664
2018-04-19T06:42:27.191Z,25280
2018-04-19T06:42:52.767Z,25376
2018-04-19T06:43:18.408Z,25888
2018-04-19T06:43:44.520Z,26624
2018-04-19T06:44:10.387Z,27648
2018-04-19T06:44:36.407Z,27712
2018-04-19T06:45:01.869Z,27456
2018-04-19T06:45:27.938Z,25536
2018-04-19T06:45:53.869Z,22272
2018-04-19T06:46:19.187Z,18656
2018-04-19T06:46:45.020Z,15012
2018-04-19T06:47:10.579Z,11852
2018-04-19T06:47:36.327Z,8948
2018-04-19T06:48:02.012Z,7176
2018-04-19T06:48:27.778Z,6068
2018-04-19T06:48:53.461Z,5840
2018-04-19T06:49:19.152Z,5764
2018-04-19T06:49:44.646Z,5704
2018-04-19T06:50:10.391Z,5656
2018-04-19T06:50:36.476Z,5624
2018-04-19T06:51:02.423Z,5596
2018-04-19T06:51:28.055Z,5572
2018-04-19T06:51:53.543Z,5564
2018-04-19T06:52:19.302Z,5540
2018-04-19T06:52:45.167Z,5532
2018-04-19T06:53:10.790Z,5508
2018-04-19T06:53:36.775Z,5484
2018-04-19T06:54:02.373Z,5460
2018-04-19T06:54:28.484Z,5440
2018-04-19T06:54:53.891Z,5424
2018-04-19T06:55:19.991Z,5420
2018-04-19T06:55:45.641Z,5408
2018-04-19T06:56:11.631Z,5400
2018-04-19T06:56:37.557Z,5396
2018-04-19T06:57:03.566Z,5384
2018-04-19T06:57:29.257Z,5380
2018-04-19T06:57:55.714Z,5368
2018-04-19T06:58:20.563Z,5336
2018-04-19T06:58:46.422Z,5312
2018-04-19T06:59:11.991Z,5300
2018-04-19T06:59:38.627Z,5296
2018-04-19T07:00:04.210Z,5276
2018-04-19T07:00:29.905Z,5272
2018-04-19T07:00:55.536Z,5300
2018-04-19T07:01:21.345Z,5296
2018-04-19T07:01:47.172Z,5284
2018-04-19T07:02:12.794Z,5280
2018-04-19T07:02:38.302Z,5264
2018-04-19T07:03:04.070Z,5256
2018-04-19T07:03:29.936Z,5264
2018-04-19T07:03:55.711Z,5268
2018-04-19T07:04:21.513Z,5268
2018-04-19T07:04:47.499Z,5272
2018-04-19T07:05:13.147Z,5284
2018-04-19T07:05:38.793Z,5284
2018-04-19T07:06:04.709Z,5292
2018-04-19T07:06:30.874Z,5300
2018-04-19T07:06:56.933Z,5292
2018-04-19T07:07:22.549Z,5288
2018-04-19T07:07:48.586Z,5288
2018-04-19T07:08:14.081Z,5276
2018-04-19T07:08:40.572Z,5288
2018-04-19T07:09:05.544Z,5292
2018-04-19T07:09:31.734Z,5284
2018-04-19T07:09:57.344Z,5264
2018-04-19T07:10:22.965Z,5256
2018-04-19T07:10:48.616Z,5240
2018-04-19T07:11:14.566Z,5224
2018-04-19T07:11:40.277Z,5216
2018-04-19T07:12:05.943Z,5204
2018-04-19T07:12:31.635Z,5192
2018-04-19T07:12:57.337Z,5188
2018-04-19T07:13:23.240Z,5192
2018-04-19T07:13:49.114Z,5188
2018-04-19T07:14:15.101Z,5180
2018-04-19T07:14:40.586Z,5172
2018-04-19T07:15:06.489Z,5172
2018-04-19T07:15:31.967Z,5164
2018-04-19T07:15:57.725Z,5156
2018-04-19T07:16:23.470Z,5156
2018-04-19T07:16:48.958Z,5152
2018-04-19T07:17:14.605Z,5152
2018-04-19T07:17:40.255Z,5144
2018-04-19T07:18:06.008Z,5132
2018-04-19T07:18:32.677Z,5132
2018-04-19T07:18:58.342Z,5128
2018-04-19T07:19:23.995Z,5132
2018-04-19T07:19:49.771Z,5124
2018-04-19T07:20:15.477Z,5116
2018-04-19T07:20:41.293Z,5112
2018-04-19T07:21:07.171Z,5112
2018-04-19T07:21:32.748Z,5092
2018-04-19T07:21:58.315Z,5100
2018-04-19T07:22:23.854Z,5104
2018-04-19T07:22:49.734Z,5104
2018-04-19T07:23:15.177Z,5108
2018-04-19T07:23:40.888Z,5108
2018-04-19T07:24:06.432Z,5112
2018-04-19T07:24:32.181Z,5104
2018-04-19T07:24:57.872Z,5092
2018-04-19T07:25:23.378Z,5092
2018-04-19T07:25:49.315Z,5088
2018-04-19T07:26:14.819Z,5092
2018-04-19T07:26:40.230Z,5088
2018-04-19T07:27:05.995Z,5076
2018-04-19T07:27:31.706Z,5076
2018-04-19T07:27:57.297Z,5068
2018-04-19T07:28:22.925Z,5068
2018-04-19T07:28:48.504Z,5064
2018-04-19T07:29:14.200Z,5056
2018-04-19T07:29:39.842Z,5052
2018-04-19T07:30:05.436Z,5052
2018-04-19T07:30:31.248Z,5052
2018-04-19T07:30:56.860Z,5044
2018-04-19T07:31:22.573Z,5048
2018-04-19T07:31:48.086Z,5044
2018-04-19T07:32:13.710Z,5044
2018-04-19T07:32:39.057Z,5040
2018-04-19T07:33:04.744Z,5044
2018-04-19T07:33:30.309Z,5048
2018-04-19T07:33:55.911Z,5044
2018-04-19T07:34:21.495Z,5040
2018-04-19T07:34:46.953Z,5040
2018-04-19T07:35:12.763Z,5040
2018-04-19T07:35:38.442Z,5040
2018-04-19T07:36:03.952Z,5040
2018-04-19T07:36:29.739Z,5040
2018-04-19T07:36:55.141Z,5048
2018-04-19T07:37:20.635Z,5056
2018-04-19T07:37:46.601Z,5052
2018-04-19T07:38:12.429Z,5064
2018-04-19T07:38:38.063Z,5068
2018-04-19T07:39:03.963Z,5068
2018-04-19T07:39:29.841Z,5072
2018-04-19T07:39:55.404Z,5072
2018-04-19T07:40:20.856Z,5080
2018-04-19T07:40:46.397Z,5080
2018-04-19T07:41:12.353Z,5084
2018-04-19T07:41:37.958Z,5088
2018-04-19T07:42:03.410Z,5092
2018-04-19T07:42:29.063Z,5084
2018-04-19T07:42:54.971Z,5076
2018-04-19T07:43:20.209Z,5072
2018-04-19T07:43:45.834Z,5068
2018-04-19T07:44:11.523Z,5076
2018-04-19T07:44:37.785Z,5056
2018-04-19T07:45:03.643Z,5068
2018-04-19T07:45:29.558Z,5076
2018-04-19T07:45:55.387Z,5068
2018-04-19T07:46:20.818Z,5052
2018-04-19T07:46:46.592Z,5040
2018-04-19T07:47:12.550Z,5040
2018-04-19T07:47:38.276Z,5032
2018-04-19T07:48:03.886Z,5028
2018-04-19T07:48:30.085Z,5020
2018-04-19T07:48:55.721Z,5020
2018-04-19T07:49:22.824Z,5020
2018-04-19T07:49:48.248Z,5008
2018-04-19T07:50:13.804Z,4968
2018-04-19T07:50:39.545Z,4972
2018-04-19T07:51:05.199Z,4996
2018-04-19T07:51:30.752Z,4992
2018-04-19T07:51:56.322Z,4988
2018-04-19T07:52:22.016Z,4972
2018-04-19T07:52:47.801Z,4964
2018-04-19T07:53:13.528Z,4956
2018-04-19T07:53:39.437Z,4956
2018-04-19T07:54:05.074Z,4940
2018-04-19T07:54:30.816Z,4940
2018-04-19T07:54:56.086Z,4936
2018-04-19T07:55:22.063Z,4928
2018-04-19T07:55:47.783Z,4924
2018-04-19T07:56:13.194Z,4916
2018-04-19T07:56:38.855Z,4904
2018-04-19T07:57:04.700Z,4896
2018-04-19T07:57:30.117Z,4880
2018-04-19T07:57:55.664Z,4884
2018-04-19T07:58:21.252Z,4884
2018-04-19T07:58:47.129Z,4868
2018-04-19T07:59:12.585Z,4860
2018-04-19T07:59:38.058Z,4864
2018-04-19T08:00:03.596Z,4856
2018-04-19T08:00:29.469Z,4848
2018-04-19T08:00:55.475Z,4844
2018-04-19T08:01:20.991Z,4844
2018-04-19T08:01:46.584Z,4840
2018-04-19T08:02:12.222Z,4836
2018-04-19T08:02:37.796Z,4836
2018-04-19T08:03:03.357Z,4828
2018-04-19T08:03:29.186Z,4820
2018-04-19T08:03:57.579Z,4808
2018-04-19T08:04:22.880Z,4808
2018-04-19T08:04:48.288Z,4804
2018-04-19T08:05:14.896Z,4788
2018-04-19T08:05:40.598Z,4772
2018-04-19T08:06:06.325Z,4764
2018-04-19T08:06:31.530Z,4764
2018-04-19T08:06:57.333Z,4752
2018-04-19T08:07:22.768Z,4748
2018-04-19T08:07:48.446Z,4752
2018-04-19T08:08:14.137Z,4744
2018-04-19T08:08:40.079Z,4732
2018-04-19T08:09:06.160Z,4728
2018-04-19T08:09:31.798Z,4724
2018-04-19T08:09:57.420Z,4724
2018-04-19T08:10:23.022Z,4716
2018-04-19T08:10:48.824Z,4716
2018-04-19T08:11:14.614Z,4700
2018-04-19T08:11:39.899Z,4696
2018-04-19T08:12:06.101Z,4684
2018-04-19T08:12:31.556Z,4684
2018-04-19T08:12:57.475Z,4672
2018-04-19T08:13:23.286Z,4672
2018-04-19T08:13:48.823Z,4664
2018-04-19T08:14:14.581Z,4664
2018-04-19T08:14:40.160Z,4664
2018-04-19T08:15:05.672Z,4660
2018-04-19T08:15:31.295Z,4656
2018-04-19T08:15:57.586Z,4640
2018-04-19T08:16:22.586Z,4632
2018-04-19T08:16:48.536Z,4628
2018-04-19T08:17:14.002Z,4628
2018-04-19T08:17:39.732Z,4620
2018-04-19T08:18:05.713Z,4612
2018-04-19T08:18:30.997Z,4612
2018-04-19T08:18:56.826Z,4608
2018-04-19T08:19:22.422Z,4600
2018-04-19T08:19:48.347Z,4592
2018-04-19T08:20:14.061Z,4584
2018-04-19T08:20:39.973Z,4584
2018-04-19T08:21:05.820Z,4576
2018-04-19T08:21:31.425Z,4568
2018-04-19T08:21:56.912Z,4560
2018-04-19T08:22:22.548Z,4552
2018-04-19T08:22:48.144Z,4536
2018-04-19T08:23:13.859Z,4516
2018-04-19T08:23:39.381Z,4500
2018-04-19T08:24:04.872Z,4484
2018-04-19T08:24:30.579Z,4468
2018-04-19T08:24:56.670Z,4460
2018-04-19T08:25:22.238Z,4444
2018-04-19T08:25:47.954Z,4436
2018-04-19T08:26:13.549Z,4428
2018-04-19T08:26:39.383Z,4424
2018-04-19T08:27:04.991Z,4404
2018-04-19T08:27:30.698Z,4380
2018-04-19T08:27:56.402Z,4340
2018-04-19T08:28:21.962Z,4352
2018-04-19T08:28:48.449Z,4276
2018-04-19T08:29:14.038Z,4264
2018-04-19T08:29:39.686Z,4240
2018-04-19T08:30:05.599Z,4216
2018-04-19T08:30:31.160Z,4204
2018-04-19T08:30:56.876Z,4184
2018-04-19T08:31:22.504Z,4176
2018-04-19T08:31:48.107Z,4176
2018-04-19T08:32:13.876Z,4180
2018-04-19T08:32:39.699Z,4184
2018-04-19T08:33:05.297Z,4176
2018-04-19T08:33:30.799Z,4164
2018-04-19T08:33:56.681Z,4164
2018-04-19T08:34:22.361Z,4168
2018-04-19T08:34:48.229Z,4156
2018-04-19T08:35:13.686Z,4160
2018-04-19T08:35:39.428Z,4160
2018-04-19T08:36:05.025Z,4156
2018-04-19T08:36:30.657Z,4144
2018-04-19T08:36:56.361Z,4152
2018-04-19T08:37:21.936Z,4156
2018-04-19T08:37:48.167Z,4172
2018-04-19T08:38:13.957Z,4176
2018-04-19T08:38:39.514Z,4184
2018-04-19T08:39:05.254Z,4180
2018-04-19T08:39:31.076Z,4184
2018-04-19T08:39:56.950Z,4188
2018-04-19T08:40:22.904Z,4172
2018-04-19T08:40:48.588Z,4168
2018-04-19T08:41:14.284Z,4156
2018-04-19T08:41:40.079Z,4160
2018-04-19T08:42:05.584Z,4152
2018-04-19T08:42:31.346Z,4148
2018-04-19T08:42:57.907Z,4140
2018-04-19T08:43:23.388Z,4132
2018-04-19T08:43:49.472Z,4128
2018-04-19T08:44:15.001Z,4132
2018-04-19T08:44:41.001Z,4132
2018-04-19T08:45:06.787Z,4124
2018-04-19T08:45:32.432Z,4120
2018-04-19T08:45:58.196Z,4124
2018-04-19T08:46:23.854Z,4120
2018-04-19T08:46:49.927Z,4120
2018-04-19T08:47:15.612Z,4116
2018-04-19T08:47:41.390Z,4116
2018-04-19T08:48:07.417Z,4112
2018-04-19T08:48:33.065Z,4100
2018-04-19T08:48:59.235Z,4096
2018-04-19T08:49:24.869Z,4092
2018-04-19T08:49:50.526Z,4080
2018-04-19T08:50:16.377Z,4068
2018-04-19T08:50:42.392Z,4068
2018-04-19T08:51:08.027Z,4068
2018-04-19T08:51:33.491Z,4064
2018-04-19T08:51:59.366Z,4048
2018-04-19T08:52:25.155Z,4040
2018-04-19T08:52:51.032Z,4032
2018-04-19T08:53:16.485Z,4020
2018-04-19T08:53:42.353Z,4004
2018-04-19T08:54:08.156Z,3996
2018-04-19T08:54:33.515Z,4000
2018-04-19T08:54:59.092Z,4000
2018-04-19T08:55:24.716Z,4004
2018-04-19T08:55:50.209Z,3996
2018-04-19T08:56:15.813Z,3960
2018-04-19T08:56:41.512Z,3952
2018-04-19T08:57:07.238Z,3956
2018-04-19T08:57:32.713Z,3972
2018-04-19T08:57:58.218Z,3972
2018-04-19T08:58:23.701Z,3972
2018-04-19T08:58:49.391Z,3960
2018-04-19T08:59:14.864Z,3964
2018-04-19T08:59:40.342Z,3948
2018-04-19T09:00:05.789Z,3944
2018-04-19T09:00:31.330Z,3948
2018-04-19T09:00:56.973Z,3956
2018-04-19T09:01:22.656Z,3948
2018-04-19T09:01:48.235Z,3928
2018-04-19T09:02:13.739Z,3908
2018-04-19T09:02:39.201Z,3916
2018-04-19T09:03:05.040Z,3916
2018-04-19T09:03:30.559Z,3920
2018-04-19T09:03:56.120Z,3920
2018-04-19T09:04:21.599Z,3920
2018-04-19T09:04:47.179Z,3916
2018-04-19T09:05:12.720Z,3912
2018-04-19T09:05:38.163Z,3908
2018-04-19T09:06:03.653Z,3892
2018-04-19T09:06:29.229Z,3876
2018-04-19T09:06:54.713Z,3868
2018-04-19T09:07:20.212Z,3876
2018-04-19T09:07:45.607Z,3880
2018-04-19T09:08:11.143Z,3872
2018-04-19T09:08:36.601Z,3876
2018-04-19T09:09:02.183Z,3868
2018-04-19T09:09:27.534Z,3864
2018-04-19T09:09:53.272Z,3860
2018-04-19T09:10:18.515Z,3852
2018-04-19T09:10:43.996Z,3832
2018-04-19T09:11:09.503Z,3828
2018-04-19T09:11:34.990Z,3836
2018-04-19T09:12:00.524Z,3836
2018-04-19T09:12:25.993Z,3832
2018-04-19T09:12:51.534Z,3828
2018-04-19T09:13:17.151Z,3816
2018-04-19T09:13:42.571Z,3796
2018-04-19T09:14:08.152Z,3796
2018-04-19T09:14:33.604Z,3804
2018-04-19T09:14:59.288Z,3808
2018-04-19T09:15:24.867Z,3804
2018-04-19T09:15:50.384Z,3800
2018-04-19T09:16:15.925Z,3792
2018-04-19T09:16:41.528Z,3768
2018-04-19T09:17:06.877Z,3788
2018-04-19T09:17:32.556Z,3804
2018-04-19T09:17:57.965Z,3812
2018-04-19T09:18:23.462Z,3804
2018-04-19T09:18:48.916Z,3792
2018-04-19T09:19:14.494Z,3776
2018-04-19T09:19:39.951Z,3764
2018-04-19T09:20:05.462Z,3752
2018-04-19T09:20:30.922Z,3740
2018-04-19T09:20:56.458Z,3740
2018-04-19T09:21:21.907Z,3748
2018-04-19T09:21:47.425Z,3740
2018-04-19T09:22:12.882Z,3752
2018-04-19T09:22:38.491Z,3760
2018-04-19T09:23:04.040Z,3752
2018-04-19T09:23:29.522Z,3740
2018-04-19T09:23:54.943Z,3728
2018-04-19T09:24:20.471Z,3724
2018-04-19T09:24:45.863Z,3728
2018-04-19T09:25:11.343Z,3728
2018-04-19T09:25:36.921Z,3720
2018-04-19T09:26:02.487Z,3724
2018-04-19T09:26:28.121Z,3728
2018-04-19T09:26:53.567Z,3724
2018-04-19T09:27:19.217Z,3720
2018-04-19T09:27:44.726Z,3704
2018-04-19T09:28:10.213Z,3684
2018-04-19T09:28:35.720Z,3684
2018-04-19T09:29:01.207Z,3688
2018-04-19T09:29:26.921Z,3696
2018-04-19T09:29:52.376Z,3696
2018-04-19T09:30:17.868Z,3688
2018-04-19T09:30:43.396Z,3688
2018-04-19T09:31:08.887Z,3676
2018-04-19T09:31:34.289Z,3668
2018-04-19T09:31:59.847Z,3652
2018-04-19T09:32:25.334Z,3640
2018-04-19T09:32:50.812Z,3632
2018-04-19T09:33:16.319Z,3632
2018-04-19T09:33:41.831Z,3624
2018-04-19T09:34:07.246Z,3624
2018-04-19T09:34:32.877Z,3620
2018-04-19T09:34:58.355Z,3616
2018-04-19T09:35:23.797Z,3612
2018-04-19T09:35:49.378Z,3600
2018-04-19T09:36:14.856Z,3596
2018-04-19T09:36:40.373Z,3580
2018-04-19T09:37:05.878Z,3572
2018-04-19T09:37:31.457Z,3564
2018-04-19T09:37:56.964Z,3564
2018-04-19T09:38:22.406Z,3568
2018-04-19T09:38:47.867Z,3568
2018-04-19T09:39:13.365Z,3560
2018-04-19T09:39:38.848Z,3556
2018-04-19T09:40:04.397Z,3544
2018-04-19T09:40:29.863Z,3552
2018-04-19T09:40:55.439Z,3552
2018-04-19T09:41:20.983Z,3536
2018-04-19T09:41:46.498Z,3532
2018-04-19T09:42:12.004Z,3544
2018-04-19T09:42:37.770Z,3548
2018-04-19T09:43:03.262Z,3532
2018-04-19T09:43:28.847Z,3532
2018-04-19T09:43:54.274Z,3524
2018-04-19T09:44:19.777Z,3516
2018-04-19T09:44:45.252Z,3504
2018-04-19T09:45:10.759Z,3448
2018-04-19T09:45:36.225Z,3448
2018-04-19T09:46:01.695Z,3460
2018-04-19T09:46:27.346Z,3456
2018-04-19T09:46:52.850Z,3456
2018-04-19T09:47:18.333Z,3472
2018-04-19T09:47:43.877Z,3472
2018-04-19T09:48:09.476Z,3472
2018-04-19T09:48:34.920Z,3472
2018-04-19T09:49:00.457Z,3464
2018-04-19T09:49:26.048Z,3448
2018-04-19T09:49:51.625Z,3428
2018-04-19T09:50:17.074Z,3424
2018-04-19T09:50:42.655Z,3420
2018-04-19T09:51:08.124Z,3416
2018-04-19T09:51:33.642Z,3408
2018-04-19T09:51:59.226Z,3388
2018-04-19T09:52:24.730Z,3368
2018-04-19T09:52:50.207Z,3360
2018-04-19T09:53:15.639Z,3356
2018-04-19T09:53:41.276Z,3356
2018-04-19T09:54:06.840Z,3356
2018-04-19T09:54:32.402Z,3348
2018-04-19T09:54:57.795Z,3332